North Litchfield, South Carolina
Current Conditions -  °F | °C
As of 12:50 PM on Saturday 20 Dec 2014 (Local Time) from KMYR Reporting Station
Light Rain Light Rain  
Wind Chill: 44°   Ceiling: 600
Heat Index: 48°   Visibility: 2mi
Dew Point: 45°   Wind: 9mph
Humidity: 87%   Direction: 50°NE
Pressure: 30.21"   Gusts: NA
Location:  33.4421°N, 79.1517°W
Report Text: KMYR 201750Z 05008KT 2SM -RA BR BKN006 OVC013 09/07 A3021
Loading
Personal Weather Stations






























Interactive Weather Map New forecast layout! Learn more

10-Day Weather Forecast

Advertisements
Track Severe Weather on mobile